sensor_id;sensor_type;location;lat;lon;timestamp;temperature;humidity
3846;DHT22;1938;50.812;7.738;2023-04-06T00:00:34;2.20;99.90
3846;DHT22;1938;50.812;7.738;2023-04-06T00:02:59;2.20;99.90
3846;DHT22;1938;50.812;7.738;2023-04-06T00:05:25;2.20;99.90
3846;DHT22;1938;50.812;7.738;2023-04-06T00:07:52;2.10;99.90
3846;DHT22;1938;50.812;7.738;2023-04-06T00:10:20;2.10;99.90
3846;DHT22;1938;50.812;7.738;2023-04-06T00:12:45;2.20;99.90
3846;DHT22;1938;50.812;7.738;2023-04-06T00:15:12;2.20;99.90
3846;DHT22;1938;50.812;7.738;2023-04-06T00:17:37;2.20;99.90
3846;DHT22;1938;50.812;7.738;2023-04-06T00:20:03;2.10;99.90
3846;DHT22;1938;50.812;7.738;2023-04-06T00:22:29;2.10;99.90
3846;DHT22;1938;50.812;7.738;2023-04-06T00:24:55;2.00;99.90
3846;DHT22;1938;50.812;7.738;2023-04-06T00:27:20;2.00;99.90
3846;DHT22;1938;50.812;7.738;2023-04-06T00:29:46;1.90;99.90
3846;DHT22;1938;50.812;7.738;2023-04-06T00:32:11;1.60;99.90
3846;DHT22;1938;50.812;7.738;2023-04-06T00:34:37;1.50;1.00
3846;DHT22;1938;50.812;7.738;2023-04-06T00:37:03;1.50;1.00
3846;DHT22;1938;50.812;7.738;2023-04-06T00:39:29;1.50;99.90
3846;DHT22;1938;50.812;7.738;2023-04-06T00:41:55;1.50;1.00
3846;DHT22;1938;50.812;7.738;2023-04-06T00:44:22;1.70;99.90
3846;DHT22;1938;50.812;7.738;2023-04-06T00:46:48;1.70;99.90
3846;DHT22;1938;50.812;7.738;2023-04-06T00:49:14;1.70;99.90
3846;DHT22;1938;50.812;7.738;2023-04-06T00:51:39;1.80;99.90
3846;DHT22;1938;50.812;7.738;2023-04-06T00:54:05;1.60;99.90
3846;DHT22;1938;50.812;7.738;2023-04-06T00:56:31;1.50;99.90
3846;DHT22;1938;50.812;7.738;2023-04-06T00:58:58;1.50;1.00
3846;DHT22;1938;50.812;7.738;2023-04-06T01:01:24;1.50;1.00
3846;DHT22;1938;50.812;7.738;2023-04-06T01:03:50;1.50;1.00
3846;DHT22;1938;50.812;7.738;2023-04-06T01:06:15;1.60;99.90
3846;DHT22;1938;50.812;7.738;2023-04-06T01:08:41;1.60;99.90
3846;DHT22;1938;50.812;7.738;2023-04-06T01:11:07;1.60;99.90
3846;DHT22;1938;50.812;7.738;2023-04-06T01:13:32;1.40;99.90
3846;DHT22;1938;50.812;7.738;2023-04-06T01:15:59;1.40;99.90
3846;DHT22;1938;50.812;7.738;2023-04-06T01:18:28;1.50;99.90
3846;DHT22;1938;50.812;7.738;2023-04-06T01:20:54;1.50;99.90
3846;DHT22;1938;50.812;7.738;2023-04-06T01:23:19;1.40;99.90
3846;DHT22;1938;50.812;7.738;2023-04-06T01:25:45;1.30;99.90
3846;DHT22;1938;50.812;7.738;2023-04-06T01:28:11;1.30;99.90
3846;DHT22;1938;50.812;7.738;2023-04-06T01:30:36;1.30;99.90
3846;DHT22;1938;50.812;7.738;2023-04-06T01:33:02;1.20;1.00
3846;DHT22;1938;50.812;7.738;2023-04-06T01:35:28;1.40;99.90
3846;DHT22;1938;50.812;7.738;2023-04-06T01:37:54;1.40;99.90
3846;DHT22;1938;50.812;7.738;2023-04-06T01:40:20;1.30;1.00
3846;DHT22;1938;50.812;7.738;2023-04-06T01:42:46;1.30;99.90
3846;DHT22;1938;50.812;7.738;2023-04-06T01:45:11;1.30;99.90
3846;DHT22;1938;50.812;7.738;2023-04-06T01:47:37;1.20;1.00
3846;DHT22;1938;50.812;7.738;2023-04-06T01:50:02;1.20;1.00
3846;DHT22;1938;50.812;7.738;2023-04-06T01:52:31;1.10;1.00
3846;DHT22;1938;50.812;7.738;2023-04-06T01:54:57;1.00;1.00
3846;DHT22;1938;50.812;7.738;2023-04-06T01:57:22;1.10;1.00
3846;DHT22;1938;50.812;7.738;2023-04-06T01:59:48;1.10;1.00
3846;DHT22;1938;50.812;7.738;2023-04-06T02:02:13;1.00;1.00
3846;DHT22;1938;50.812;7.738;2023-04-06T02:04:39;1.00;1.00
3846;DHT22;1938;50.812;7.738;2023-04-06T02:07:04;1.00;1.00
3846;DHT22;1938;50.812;7.738;2023-04-06T02:09:30;1.00;1.00
3846;DHT22;1938;50.812;7.738;2023-04-06T02:11:55;0.90;1.00
3846;DHT22;1938;50.812;7.738;2023-04-06T02:14:26;1.00;1.00
3846;DHT22;1938;50.812;7.738;2023-04-06T02:16:53;1.00;1.00
3846;DHT22;1938;50.812;7.738;2023-04-06T02:19:18;0.90;1.00
3846;DHT22;1938;50.812;7.738;2023-04-06T02:21:44;0.90;1.00
3846;DHT22;1938;50.812;7.738;2023-04-06T02:24:09;0.90;1.00
3846;DHT22;1938;50.812;7.738;2023-04-06T02:26:35;1.00;1.00
3846;DHT22;1938;50.812;7.738;2023-04-06T02:29:00;1.00;1.00
3846;DHT22;1938;50.812;7.738;2023-04-06T02:31:27;1.00;1.00
3846;DHT22;1938;50.812;7.738;2023-04-06T02:33:53;0.90;1.00
3846;DHT22;1938;50.812;7.738;2023-04-06T02:36:18;0.90;1.00
3846;DHT22;1938;50.812;7.738;2023-04-06T02:38:45;0.80;1.00
3846;DHT22;1938;50.812;7.738;2023-04-06T02:41:10;0.90;1.00
3846;DHT22;1938;50.812;7.738;2023-04-06T02:43:37;0.90;1.00
3846;DHT22;1938;50.812;7.738;2023-04-06T02:46:02;0.90;1.00
3846;DHT22;1938;50.812;7.738;2023-04-06T02:48:28;0.90;1.00
3846;DHT22;1938;50.812;7.738;2023-04-06T02:50:54;0.80;1.00
3846;DHT22;1938;50.812;7.738;2023-04-06T02:53:19;0.80;1.00
3846;DHT22;1938;50.812;7.738;2023-04-06T02:55:45;0.80;1.00
3846;DHT22;1938;50.812;7.738;2023-04-06T02:58:12;0.90;1.00
3846;DHT22;1938;50.812;7.738;2023-04-06T03:00:37;1.00;1.00
3846;DHT22;1938;50.812;7.738;2023-04-06T03:03:03;1.00;1.00
3846;DHT22;1938;50.812;7.738;2023-04-06T03:05:28;1.10;1.00
3846;DHT22;1938;50.812;7.738;2023-04-06T03:07:55;0.90;1.00
3846;DHT22;1938;50.812;7.738;2023-04-06T03:10:21;0.80;1.00
3846;DHT22;1938;50.812;7.738;2023-04-06T03:12:46;0.80;1.00
3846;DHT22;1938;50.812;7.738;2023-04-06T03:15:12;0.70;1.00
3846;DHT22;1938;50.812;7.738;2023-04-06T03:17:37;0.60;1.00
3846;DHT22;1938;50.812;7.738;2023-04-06T03:20:03;0.50;1.00
3846;DHT22;1938;50.812;7.738;2023-04-06T03:22:29;0.50;1.00
3846;DHT22;1938;50.812;7.738;2023-04-06T03:24:56;0.60;1.00
3846;DHT22;1938;50.812;7.738;2023-04-06T03:27:21;0.70;99.90
3846;DHT22;1938;50.812;7.738;2023-04-06T03:29:47;0.90;1.00
3846;DHT22;1938;50.812;7.738;2023-04-06T03:32:12;0.70;1.00
3846;DHT22;1938;50.812;7.738;2023-04-06T03:34:39;0.60;1.00
3846;DHT22;1938;50.812;7.738;2023-04-06T03:37:05;0.70;1.00
3846;DHT22;1938;50.812;7.738;2023-04-06T03:39:30;0.60;1.00
3846;DHT22;1938;50.812;7.738;2023-04-06T03:41:56;0.60;1.00
3846;DHT22;1938;50.812;7.738;2023-04-06T03:44:21;0.60;1.00
3846;DHT22;1938;50.812;7.738;2023-04-06T03:46:48;0.50;1.00
3846;DHT22;1938;50.812;7.738;2023-04-06T03:49:13;0.60;1.00
3846;DHT22;1938;50.812;7.738;2023-04-06T03:51:39;0.50;1.00
3846;DHT22;1938;50.812;7.738;2023-04-06T03:54:05;0.50;1.00
3846;DHT22;1938;50.812;7.738;2023-04-06T03:56:31;0.50;1.00
3846;DHT22;1938;50.812;7.738;2023-04-06T03:58:57;0.50;1.00
3846;DHT22;1938;50.812;7.738;2023-04-06T04:01:23;0.50;1.00
3846;DHT22;1938;50.812;7.738;2023-04-06T04:03:49;0.50;1.00
3846;DHT22;1938;50.812;7.738;2023-04-06T04:06:15;0.50;1.00
3846;DHT22;1938;50.812;7.738;2023-04-06T04:08:40;0.60;1.00
3846;DHT22;1938;50.812;7.738;2023-04-06T04:11:06;0.50;1.00
3846;DHT22;1938;50.812;7.738;2023-04-06T04:13:31;0.50;1.00
3846;DHT22;1938;50.812;7.738;2023-04-06T04:15:58;0.50;1.00
3846;DHT22;1938;50.812;7.738;2023-04-06T04:18:24;0.40;1.00
3846;DHT22;1938;50.812;7.738;2023-04-06T04:20:49;0.30;1.00
3846;DHT22;1938;50.812;7.738;2023-04-06T04:23:15;0.30;1.00
3846;DHT22;1938;50.812;7.738;2023-04-06T04:25:40;0.30;1.00
3846;DHT22;1938;50.812;7.738;2023-04-06T04:28:06;0.40;1.00
3846;DHT22;1938;50.812;7.738;2023-04-06T04:30:31;0.40;1.00
3846;DHT22;1938;50.812;7.738;2023-04-06T04:32:57;0.40;1.00
3846;DHT22;1938;50.812;7.738;2023-04-06T04:35:22;0.40;1.00
3846;DHT22;1938;50.812;7.738;2023-04-06T04:37:49;0.40;1.00
3846;DHT22;1938;50.812;7.738;2023-04-06T04:40:14;0.40;1.00
3846;DHT22;1938;50.812;7.738;2023-04-06T04:42:42;0.40;1.00
3846;DHT22;1938;50.812;7.738;2023-04-06T04:45:07;0.40;1.00
3846;DHT22;1938;50.812;7.738;2023-04-06T04:47:33;0.40;1.00
3846;DHT22;1938;50.812;7.738;2023-04-06T04:50:00;0.60;1.00
3846;DHT22;1938;50.812;7.738;2023-04-06T04:52:25;0.60;1.00
3846;DHT22;1938;50.812;7.738;2023-04-06T04:54:51;0.60;1.00
3846;DHT22;1938;50.812;7.738;2023-04-06T04:57:17;0.80;1.00
3846;DHT22;1938;50.812;7.738;2023-04-06T04:59:43;0.70;1.00
3846;DHT22;1938;50.812;7.738;2023-04-06T05:02:08;0.50;1.00
3846;DHT22;1938;50.812;7.738;2023-04-06T05:04:35;0.50;1.00
3846;DHT22;1938;50.812;7.738;2023-04-06T05:07:07;0.40;1.00
3846;DHT22;1938;50.812;7.738;2023-04-06T05:09:33;0.50;1.00
3846;DHT22;1938;50.812;7.738;2023-04-06T05:11:59;0.50;1.00
3846;DHT22;1938;50.812;7.738;2023-04-06T05:14:26;0.60;1.00
3846;DHT22;1938;50.812;7.738;2023-04-06T05:16:53;0.50;1.00
3846;DHT22;1938;50.812;7.738;2023-04-06T05:19:19;0.60;1.00
3846;DHT22;1938;50.812;7.738;2023-04-06T05:21:45;0.90;1.00
3846;DHT22;1938;50.812;7.738;2023-04-06T05:24:11;0.90;1.00
3846;DHT22;1938;50.812;7.738;2023-04-06T05:26:36;0.80;1.00
3846;DHT22;1938;50.812;7.738;2023-04-06T05:29:02;0.70;1.00
3846;DHT22;1938;50.812;7.738;2023-04-06T05:31:27;0.50;1.00
3846;DHT22;1938;50.812;7.738;2023-04-06T05:33:54;0.60;1.00
3846;DHT22;1938;50.812;7.738;2023-04-06T05:36:19;0.70;1.00
3846;DHT22;1938;50.812;7.738;2023-04-06T05:38:45;0.80;1.00
3846;DHT22;1938;50.812;7.738;2023-04-06T05:41:11;0.80;1.00
3846;DHT22;1938;50.812;7.738;2023-04-06T05:43:36;1.00;1.00
3846;DHT22;1938;50.812;7.738;2023-04-06T05:46:02;1.30;1.00
3846;DHT22;1938;50.812;7.738;2023-04-06T05:48:29;1.70;1.00
3846;DHT22;1938;50.812;7.738;2023-04-06T05:50:54;2.40;99.90
3846;DHT22;1938;50.812;7.738;2023-04-06T05:53:20;3.00;99.90
3846;DHT22;1938;50.812;7.738;2023-04-06T05:55:46;4.30;99.90
3846;DHT22;1938;50.812;7.738;2023-04-06T05:58:12;5.70;99.90
3846;DHT22;1938;50.812;7.738;2023-04-06T06:00:39;7.00;99.90
3846;DHT22;1938;50.812;7.738;2023-04-06T06:03:05;8.00;99.90
3846;DHT22;1938;50.812;7.738;2023-04-06T06:05:31;9.30;99.90
3846;DHT22;1938;50.812;7.738;2023-04-06T06:07:56;10.10;99.90
3846;DHT22;1938;50.812;7.738;2023-04-06T06:10:22;10.40;99.90
3846;DHT22;1938;50.812;7.738;2023-04-06T06:12:49;10.90;99.90
3846;DHT22;1938;50.812;7.738;2023-04-06T06:15:14;11.50;99.90
3846;DHT22;1938;50.812;7.738;2023-04-06T06:17:40;12.20;99.90
3846;DHT22;1938;50.812;7.738;2023-04-06T06:20:07;13.30;99.90
3846;DHT22;1938;50.812;7.738;2023-04-06T06:22:32;14.30;99.90
3846;DHT22;1938;50.812;7.738;2023-04-06T06:24:59;14.80;99.90
3846;DHT22;1938;50.812;7.738;2023-04-06T06:27:24;15.20;99.90
3846;DHT22;1938;50.812;7.738;2023-04-06T06:29:50;15.50;99.90
3846;DHT22;1938;50.812;7.738;2023-04-06T06:32:16;15.80;99.90
3846;DHT22;1938;50.812;7.738;2023-04-06T06:34:41;16.30;99.90
3846;DHT22;1938;50.812;7.738;2023-04-06T06:37:08;16.30;99.90
3846;DHT22;1938;50.812;7.738;2023-04-06T06:39:33;16.70;99.90
3846;DHT22;1938;50.812;7.738;2023-04-06T06:41:59;17.60;99.90
3846;DHT22;1938;50.812;7.738;2023-04-06T06:44:28;18.60;99.90
3846;DHT22;1938;50.812;7.738;2023-04-06T06:46:53;19.20;99.90
3846;DHT22;1938;50.812;7.738;2023-04-06T06:49:19;19.70;99.90
3846;DHT22;1938;50.812;7.738;2023-04-06T06:51:46;20.20;99.90
3846;DHT22;1938;50.812;7.738;2023-04-06T06:54:12;20.00;99.90
3846;DHT22;1938;50.812;7.738;2023-04-06T06:56:38;20.40;99.90
3846;DHT22;1938;50.812;7.738;2023-04-06T06:59:05;20.20;99.90
3846;DHT22;1938;50.812;7.738;2023-04-06T07:01:32;20.70;99.90
3846;DHT22;1938;50.812;7.738;2023-04-06T07:03:59;21.50;99.90
3846;DHT22;1938;50.812;7.738;2023-04-06T07:06:24;22.10;99.90
3846;DHT22;1938;50.812;7.738;2023-04-06T07:08:50;22.20;99.90
3846;DHT22;1938;50.812;7.738;2023-04-06T07:11:16;22.70;99.90
3846;DHT22;1938;50.812;7.738;2023-04-06T07:13:42;22.90;99.90
3846;DHT22;1938;50.812;7.738;2023-04-06T07:16:07;22.30;99.90
3846;DHT22;1938;50.812;7.738;2023-04-06T07:18:34;21.90;99.90
3846;DHT22;1938;50.812;7.738;2023-04-06T07:21:00;21.80;99.90
3846;DHT22;1938;50.812;7.738;2023-04-06T07:23:25;22.00;99.90
3846;DHT22;1938;50.812;7.738;2023-04-06T07:25:52;22.50;99.90
3846;DHT22;1938;50.812;7.738;2023-04-06T07:28:19;23.10;99.90
3846;DHT22;1938;50.812;7.738;2023-04-06T07:30:44;23.70;99.90
3846;DHT22;1938;50.812;7.738;2023-04-06T07:33:10;23.70;99.90
3846;DHT22;1938;50.812;7.738;2023-04-06T07:35:36;23.70;99.90
3846;DHT22;1938;50.812;7.738;2023-04-06T07:38:03;24.00;99.90
3846;DHT22;1938;50.812;7.738;2023-04-06T07:40:28;24.20;99.90
3846;DHT22;1938;50.812;7.738;2023-04-06T07:42:54;24.90;99.90
3846;DHT22;1938;50.812;7.738;2023-04-06T07:45:20;25.60;99.90
3846;DHT22;1938;50.812;7.738;2023-04-06T07:47:45;25.90;99.90
3846;DHT22;1938;50.812;7.738;2023-04-06T07:50:11;26.50;99.90
3846;DHT22;1938;50.812;7.738;2023-04-06T07:52:39;26.40;99.90
3846;DHT22;1938;50.812;7.738;2023-04-06T07:55:05;26.40;99.90
3846;DHT22;1938;50.812;7.738;2023-04-06T07:57:30;26.90;99.90
3846;DHT22;1938;50.812;7.738;2023-04-06T07:59:56;26.90;99.90
3846;DHT22;1938;50.812;7.738;2023-04-06T08:02:21;26.90;99.90
3846;DHT22;1938;50.812;7.738;2023-04-06T08:04:48;27.20;99.90
3846;DHT22;1938;50.812;7.738;2023-04-06T08:07:13;27.20;99.90
3846;DHT22;1938;50.812;7.738;2023-04-06T08:09:39;27.30;99.90
3846;DHT22;1938;50.812;7.738;2023-04-06T08:12:05;26.30;99.90
3846;DHT22;1938;50.812;7.738;2023-04-06T08:14:30;26.90;99.90
3846;DHT22;1938;50.812;7.738;2023-04-06T08:16:57;27.00;99.90
3846;DHT22;1938;50.812;7.738;2023-04-06T08:19:23;27.20;99.90
3846;DHT22;1938;50.812;7.738;2023-04-06T08:21:48;26.80;99.90
3846;DHT22;1938;50.812;7.738;2023-04-06T08:24:15;27.10;99.90
3846;DHT22;1938;50.812;7.738;2023-04-06T08:26:40;27.10;99.90
3846;DHT22;1938;50.812;7.738;2023-04-06T08:29:06;27.10;99.90
3846;DHT22;1938;50.812;7.738;2023-04-06T08:31:35;26.70;99.90
3846;DHT22;1938;50.812;7.738;2023-04-06T08:34:01;26.80;99.90
3846;DHT22;1938;50.812;7.738;2023-04-06T08:36:27;27.40;99.90
3846;DHT22;1938;50.812;7.738;2023-04-06T08:38:54;27.50;99.90
3846;DHT22;1938;50.812;7.738;2023-04-06T08:41:20;27.70;99.90
3846;DHT22;1938;50.812;7.738;2023-04-06T08:43:53;28.20;99.90
3846;DHT22;1938;50.812;7.738;2023-04-06T08:46:23;27.90;99.90
3846;DHT22;1938;50.812;7.738;2023-04-06T08:48:55;28.40;99.90
3846;DHT22;1938;50.812;7.738;2023-04-06T08:51:23;28.60;99.90
3846;DHT22;1938;50.812;7.738;2023-04-06T08:53:52;28.70;99.90
3846;DHT22;1938;50.812;7.738;2023-04-06T08:56:29;28.80;99.90
3846;DHT22;1938;50.812;7.738;2023-04-06T08:58:56;28.60;99.90
3846;DHT22;1938;50.812;7.738;2023-04-06T09:01:26;28.20;99.90
3846;DHT22;1938;50.812;7.738;2023-04-06T09:03:56;28.30;99.90
3846;DHT22;1938;50.812;7.738;2023-04-06T09:06:22;28.60;99.90
3846;DHT22;1938;50.812;7.738;2023-04-06T09:08:47;28.20;99.90
3846;DHT22;1938;50.812;7.738;2023-04-06T09:11:14;28.20;99.90
3846;DHT22;1938;50.812;7.738;2023-04-06T09:13:47;28.10;99.90
3846;DHT22;1938;50.812;7.738;2023-04-06T09:16:13;27.50;99.90
3846;DHT22;1938;50.812;7.738;2023-04-06T09:18:38;26.90;99.90
3846;DHT22;1938;50.812;7.738;2023-04-06T09:21:06;25.70;99.90
3846;DHT22;1938;50.812;7.738;2023-04-06T09:23:32;25.00;99.90
3846;DHT22;1938;50.812;7.738;2023-04-06T09:26:15;24.00;99.90
3846;DHT22;1938;50.812;7.738;2023-04-06T09:28:51;23.50;99.90
3846;DHT22;1938;50.812;7.738;2023-04-06T09:31:22;23.10;99.90
3846;DHT22;1938;50.812;7.738;2023-04-06T09:33:48;21.70;99.90
3846;DHT22;1938;50.812;7.738;2023-04-06T09:36:14;21.10;99.90
3846;DHT22;1938;50.812;7.738;2023-04-06T09:38:58;20.80;99.90
3846;DHT22;1938;50.812;7.738;2023-04-06T09:41:32;20.60;99.90
3846;DHT22;1938;50.812;7.738;2023-04-06T09:44:11;20.40;99.90
3846;DHT22;1938;50.812;7.738;2023-04-06T09:46:43;20.30;99.90
3846;DHT22;1938;50.812;7.738;2023-04-06T09:49:09;19.80;99.90
3846;DHT22;1938;50.812;7.738;2023-04-06T09:51:38;19.60;99.90
3846;DHT22;1938;50.812;7.738;2023-04-06T09:54:04;19.40;99.90
3846;DHT22;1938;50.812;7.738;2023-04-06T09:56:42;19.20;99.90
3846;DHT22;1938;50.812;7.738;2023-04-06T09:59:14;19.30;99.90
3846;DHT22;1938;50.812;7.738;2023-04-06T10:01:41;19.00;99.90
3846;DHT22;1938;50.812;7.738;2023-04-06T10:04:32;18.80;99.90
3846;DHT22;1938;50.812;7.738;2023-04-06T10:07:02;18.60;99.90
3846;DHT22;1938;50.812;7.738;2023-04-06T10:09:30;18.20;99.90
3846;DHT22;1938;50.812;7.738;2023-04-06T10:12:05;18.20;99.90
3846;DHT22;1938;50.812;7.738;2023-04-06T10:14:34;18.10;99.90
3846;DHT22;1938;50.812;7.738;2023-04-06T10:17:04;17.70;99.90
3846;DHT22;1938;50.812;7.738;2023-04-06T10:20:38;17.40;99.90
3846;DHT22;1938;50.812;7.738;2023-04-06T10:22:41;17.50;99.90
3846;DHT22;1938;50.812;7.738;2023-04-06T10:25:08;17.50;99.90
3846;DHT22;1938;50.812;7.738;2023-04-06T10:27:34;17.40;99.90
3846;DHT22;1938;50.812;7.738;2023-04-06T10:30:07;17.40;99.90
3846;DHT22;1938;50.812;7.738;2023-04-06T10:32:37;17.40;99.90
3846;DHT22;1938;50.812;7.738;2023-04-06T10:35:07;17.40;99.90
3846;DHT22;1938;50.812;7.738;2023-04-06T10:37:47;17.30;99.90
3846;DHT22;1938;50.812;7.738;2023-04-06T10:40:24;17.40;99.90
3846;DHT22;1938;50.812;7.738;2023-04-06T10:42:51;17.50;99.90
3846;DHT22;1938;50.812;7.738;2023-04-06T10:45:23;17.40;99.90
3846;DHT22;1938;50.812;7.738;2023-04-06T10:47:51;17.10;99.90
3846;DHT22;1938;50.812;7.738;2023-04-06T10:50:17;16.80;99.90
3846;DHT22;1938;50.812;7.738;2023-04-06T10:52:46;16.50;99.90
3846;DHT22;1938;50.812;7.738;2023-04-06T10:55:13;16.30;99.90
3846;DHT22;1938;50.812;7.738;2023-04-06T10:57:41;16.30;99.90
3846;DHT22;1938;50.812;7.738;2023-04-06T11:00:08;16.30;99.90
3846;DHT22;1938;50.812;7.738;2023-04-06T11:02:35;16.00;99.90
3846;DHT22;1938;50.812;7.738;2023-04-06T11:05:01;16.10;99.90
3846;DHT22;1938;50.812;7.738;2023-04-06T11:07:28;16.10;99.90
3846;DHT22;1938;50.812;7.738;2023-04-06T11:09:56;16.30;99.90
3846;DHT22;1938;50.812;7.738;2023-04-06T11:12:26;16.40;99.90
3846;DHT22;1938;50.812;7.738;2023-04-06T11:17:32;16.40;99.90
3846;DHT22;1938;50.812;7.738;2023-04-06T11:19:58;16.30;99.90
3846;DHT22;1938;50.812;7.738;2023-04-06T11:22:25;16.20;99.90
3846;DHT22;1938;50.812;7.738;2023-04-06T11:24:51;16.20;99.90
3846;DHT22;1938;50.812;7.738;2023-04-06T11:27:18;16.20;99.90
3846;DHT22;1938;50.812;7.738;2023-04-06T11:29:44;16.10;99.90
3846;DHT22;1938;50.812;7.738;2023-04-06T11:32:11;16.00;99.90
3846;DHT22;1938;50.812;7.738;2023-04-06T11:34:47;16.00;99.90
3846;DHT22;1938;50.812;7.738;2023-04-06T11:37:12;16.10;99.90
3846;DHT22;1938;50.812;7.738;2023-04-06T11:39:52;16.20;99.90
3846;DHT22;1938;50.812;7.738;2023-04-06T11:42:22;16.10;99.90
3846;DHT22;1938;50.812;7.738;2023-04-06T11:44:50;16.10;99.90
3846;DHT22;1938;50.812;7.738;2023-04-06T11:47:17;16.00;99.90
3846;DHT22;1938;50.812;7.738;2023-04-06T11:49:44;16.10;99.90
3846;DHT22;1938;50.812;7.738;2023-04-06T11:52:25;16.20;99.90
3846;DHT22;1938;50.812;7.738;2023-04-06T11:54:52;16.20;99.90
3846;DHT22;1938;50.812;7.738;2023-04-06T11:57:19;16.30;99.90
3846;DHT22;1938;50.812;7.738;2023-04-06T11:59:45;16.20;99.90
3846;DHT22;1938;50.812;7.738;2023-04-06T12:02:11;16.10;99.90
3846;DHT22;1938;50.812;7.738;2023-04-06T12:04:37;16.10;99.90
3846;DHT22;1938;50.812;7.738;2023-04-06T12:07:03;16.20;99.90
3846;DHT22;1938;50.812;7.738;2023-04-06T12:09:29;16.20;99.90
3846;DHT22;1938;50.812;7.738;2023-04-06T12:11:55;16.10;99.90
3846;DHT22;1938;50.812;7.738;2023-04-06T12:14:22;16.10;99.90
3846;DHT22;1938;50.812;7.738;2023-04-06T12:16:48;16.10;99.90
3846;DHT22;1938;50.812;7.738;2023-04-06T12:19:13;16.00;99.90
3846;DHT22;1938;50.812;7.738;2023-04-06T12:21:39;15.90;99.90
3846;DHT22;1938;50.812;7.738;2023-04-06T12:24:06;15.60;99.90
3846;DHT22;1938;50.812;7.738;2023-04-06T12:26:32;15.60;99.90
3846;DHT22;1938;50.812;7.738;2023-04-06T12:28:58;15.60;99.90
3846;DHT22;1938;50.812;7.738;2023-04-06T12:31:34;15.80;99.90
3846;DHT22;1938;50.812;7.738;2023-04-06T12:34:00;15.80;99.90
3846;DHT22;1938;50.812;7.738;2023-04-06T12:36:27;15.90;99.90
3846;DHT22;1938;50.812;7.738;2023-04-06T12:38:54;15.90;99.90
3846;DHT22;1938;50.812;7.738;2023-04-06T12:41:20;16.10;99.90
3846;DHT22;1938;50.812;7.738;2023-04-06T12:43:46;16.10;99.90
3846;DHT22;1938;50.812;7.738;2023-04-06T12:46:13;16.20;99.90
3846;DHT22;1938;50.812;7.738;2023-04-06T12:48:38;16.40;99.90
3846;DHT22;1938;50.812;7.738;2023-04-06T12:51:05;16.30;99.90
3846;DHT22;1938;50.812;7.738;2023-04-06T12:53:32;16.10;99.90
3846;DHT22;1938;50.812;7.738;2023-04-06T12:55:59;16.20;99.90
3846;DHT22;1938;50.812;7.738;2023-04-06T12:58:25;16.10;99.90
3846;DHT22;1938;50.812;7.738;2023-04-06T13:00:55;16.20;99.90
3846;DHT22;1938;50.812;7.738;2023-04-06T13:03:21;16.00;99.90
3846;DHT22;1938;50.812;7.738;2023-04-06T13:05:48;15.90;99.90
3846;DHT22;1938;50.812;7.738;2023-04-06T13:08:15;15.80;99.90
3846;DHT22;1938;50.812;7.738;2023-04-06T13:10:48;15.90;99.90
3846;DHT22;1938;50.812;7.738;2023-04-06T13:13:17;15.90;99.90
3846;DHT22;1938;50.812;7.738;2023-04-06T13:15:44;15.80;99.90
3846;DHT22;1938;50.812;7.738;2023-04-06T13:18:10;16.00;99.90
3846;DHT22;1938;50.812;7.738;2023-04-06T13:20:36;15.90;99.90
3846;DHT22;1938;50.812;7.738;2023-04-06T13:23:02;15.80;99.90
3846;DHT22;1938;50.812;7.738;2023-04-06T13:25:29;15.80;99.90
3846;DHT22;1938;50.812;7.738;2023-04-06T13:27:55;15.90;99.90
3846;DHT22;1938;50.812;7.738;2023-04-06T13:30:21;15.80;99.90
3846;DHT22;1938;50.812;7.738;2023-04-06T13:32:48;15.80;99.90
3846;DHT22;1938;50.812;7.738;2023-04-06T13:35:13;15.70;99.90
3846;DHT22;1938;50.812;7.738;2023-04-06T13:37:39;15.60;99.90
3846;DHT22;1938;50.812;7.738;2023-04-06T13:40:06;15.50;99.90
3846;DHT22;1938;50.812;7.738;2023-04-06T13:42:31;15.50;99.90
3846;DHT22;1938;50.812;7.738;2023-04-06T13:44:58;15.60;99.90
3846;DHT22;1938;50.812;7.738;2023-04-06T13:47:24;15.50;99.90
3846;DHT22;1938;50.812;7.738;2023-04-06T13:49:50;15.50;99.90
3846;DHT22;1938;50.812;7.738;2023-04-06T13:52:17;15.50;99.90
3846;DHT22;1938;50.812;7.738;2023-04-06T13:54:42;15.50;99.90
3846;DHT22;1938;50.812;7.738;2023-04-06T13:57:08;15.50;99.90
3846;DHT22;1938;50.812;7.738;2023-04-06T13:59:37;15.60;99.90
3846;DHT22;1938;50.812;7.738;2023-04-06T14:02:04;15.50;99.90
3846;DHT22;1938;50.812;7.738;2023-04-06T14:04:31;15.40;99.90
3846;DHT22;1938;50.812;7.738;2023-04-06T14:06:57;15.40;99.90
3846;DHT22;1938;50.812;7.738;2023-04-06T14:09:23;15.40;99.90
3846;DHT22;1938;50.812;7.738;2023-04-06T14:11:49;15.30;99.90
3846;DHT22;1938;50.812;7.738;2023-04-06T14:14:15;15.40;99.90
3846;DHT22;1938;50.812;7.738;2023-04-06T14:16:41;15.30;99.90
3846;DHT22;1938;50.812;7.738;2023-04-06T14:19:09;15.00;99.90
3846;DHT22;1938;50.812;7.738;2023-04-06T14:21:41;15.00;99.90
3846;DHT22;1938;50.812;7.738;2023-04-06T14:24:07;14.80;99.90
3846;DHT22;1938;50.812;7.738;2023-04-06T14:26:33;14.80;99.90
3846;DHT22;1938;50.812;7.738;2023-04-06T14:28:59;14.60;99.90
3846;DHT22;1938;50.812;7.738;2023-04-06T14:31:25;14.40;99.90
3846;DHT22;1938;50.812;7.738;2023-04-06T14:33:51;14.10;99.90
3846;DHT22;1938;50.812;7.738;2023-04-06T14:36:17;13.80;99.90
3846;DHT22;1938;50.812;7.738;2023-04-06T14:38:42;13.60;99.90
3846;DHT22;1938;50.812;7.738;2023-04-06T14:41:22;13.50;99.90
3846;DHT22;1938;50.812;7.738;2023-04-06T14:43:48;13.30;99.90
3846;DHT22;1938;50.812;7.738;2023-04-06T14:46:14;13.10;99.90
3846;DHT22;1938;50.812;7.738;2023-04-06T14:48:43;13.00;99.90
3846;DHT22;1938;50.812;7.738;2023-04-06T14:51:08;12.80;99.90
3846;DHT22;1938;50.812;7.738;2023-04-06T14:53:34;12.70;99.90
3846;DHT22;1938;50.812;7.738;2023-04-06T14:56:00;12.60;99.90
3846;DHT22;1938;50.812;7.738;2023-04-06T14:58:26;12.60;99.90
3846;DHT22;1938;50.812;7.738;2023-04-06T15:00:58;12.70;99.90
3846;DHT22;1938;50.812;7.738;2023-04-06T15:03:29;12.70;99.90
3846;DHT22;1938;50.812;7.738;2023-04-06T15:05:55;12.70;99.90
3846;DHT22;1938;50.812;7.738;2023-04-06T15:08:24;12.60;99.90
3846;DHT22;1938;50.812;7.738;2023-04-06T15:10:50;12.50;99.90
3846;DHT22;1938;50.812;7.738;2023-04-06T15:13:17;12.50;99.90
3846;DHT22;1938;50.812;7.738;2023-04-06T15:15:43;12.60;99.90
3846;DHT22;1938;50.812;7.738;2023-04-06T15:18:09;12.70;99.90
3846;DHT22;1938;50.812;7.738;2023-04-06T15:20:35;12.80;99.90
3846;DHT22;1938;50.812;7.738;2023-04-06T15:23:02;12.80;99.90
3846;DHT22;1938;50.812;7.738;2023-04-06T15:25:28;12.70;99.90
3846;DHT22;1938;50.812;7.738;2023-04-06T15:27:54;12.80;99.90
3846;DHT22;1938;50.812;7.738;2023-04-06T15:30:21;12.80;99.90
3846;DHT22;1938;50.812;7.738;2023-04-06T15:32:53;12.70;99.90
3846;DHT22;1938;50.812;7.738;2023-04-06T15:35:20;12.70;99.90
3846;DHT22;1938;50.812;7.738;2023-04-06T15:37:45;12.60;99.90
3846;DHT22;1938;50.812;7.738;2023-04-06T15:40:11;12.40;99.90
3846;DHT22;1938;50.812;7.738;2023-04-06T15:42:39;12.20;99.90
3846;DHT22;1938;50.812;7.738;2023-04-06T15:45:05;12.00;99.90
3846;DHT22;1938;50.812;7.738;2023-04-06T15:47:31;11.90;99.90
3846;DHT22;1938;50.812;7.738;2023-04-06T15:49:57;11.80;99.90
3846;DHT22;1938;50.812;7.738;2023-04-06T15:52:23;11.80;99.90
3846;DHT22;1938;50.812;7.738;2023-04-06T15:54:48;11.70;99.90
3846;DHT22;1938;50.812;7.738;2023-04-06T15:57:14;11.60;99.90
3846;DHT22;1938;50.812;7.738;2023-04-06T15:59:40;11.60;99.90
3846;DHT22;1938;50.812;7.738;2023-04-06T16:02:05;11.50;99.90
3846;DHT22;1938;50.812;7.738;2023-04-06T16:04:31;11.40;99.90
3846;DHT22;1938;50.812;7.738;2023-04-06T16:06:56;11.40;99.90
3846;DHT22;1938;50.812;7.738;2023-04-06T16:09:22;11.40;99.90
3846;DHT22;1938;50.812;7.738;2023-04-06T16:11:47;11.40;99.90